Time;durP1;ratioP1;P1;durP2;ratioP2;P2;SDS_P1;SDS_P2;PMS_P1;PMS_P2;Temp;Humidity;BMP_temperature;BMP_pressure;BME280_temperature;BME280_humidity;BME280_pressure;Samples;Min_cycle;Max_cycle;Signal;HPM_P1;HPM_P2
2021/04/15 00:01:39;;;;;;;17.90;11.90;;;1.70;99.90;;;-143.32;100.00;53337.78;4899308;29;20466;-91
2021/04/15 00:04:06;;;;;;;17.23;12.40;;;1.70;99.90;;;-143.32;100.00;53333.75;4899342;29;20570;-90
2021/04/15 00:06:34;;;;;;;19.47;11.70;;;1.60;99.90;;;-143.32;100.00;53349.91;4896514;29;20451;-90
2021/04/15 00:09:07;;;;;;;20.37;12.50;;;1.60;99.90;;;-143.32;100.00;53254.97;4897869;29;20452;-90
2021/04/15 00:11:35;;;;;;;17.17;11.60;;;1.50;99.90;;;-143.32;100.00;53240.84;4899433;29;20800;-90
2021/04/15 00:14:04;;;;;;;28.23;13.70;;;1.70;99.90;;;-143.32;100.00;53252.97;4893541;29;20559;-89
2021/04/15 00:16:32;;;;;;;21.77;14.63;;;1.50;99.90;;;-143.32;100.00;53246.91;4880511;29;20449;-91
2021/04/15 00:19:00;;;;;;;22.03;13.03;;;1.40;99.90;;;-143.32;100.00;53184.28;4880468;29;20457;-91
2021/04/15 00:21:28;;;;;;;20.10;13.60;;;1.40;99.90;;;-143.32;100.00;53206.50;4881819;29;20457;-89
2021/04/15 00:23:56;;;;;;;19.00;13.10;;;1.30;99.90;;;-143.32;100.00;53135.81;4880738;29;20472;-88
2021/04/15 00:26:26;;;;;;;16.93;11.97;;;1.30;99.90;;;-143.32;100.00;53131.78;4881921;29;20458;-88
2021/04/15 00:28:55;;;;;;;16.70;12.80;;;1.30;99.90;;;-143.32;100.00;53123.72;4881226;29;20468;-88
2021/04/15 00:31:23;;;;;;;20.50;13.73;;;1.20;99.90;;;-143.32;100.00;53105.53;4880530;29;20461;-90
2021/04/15 00:33:49;;;;;;;21.03;12.93;;;1.20;99.90;;;-143.32;100.00;53065.13;4895477;29;20480;-88
2021/04/15 00:36:17;;;;;;;29.90;14.10;;;1.20;99.90;;;-143.32;100.00;52976.28;4898520;29;20474;-88
2021/04/15 00:38:44;;;;;;;24.50;14.33;;;1.20;99.90;;;-143.32;100.00;52915.69;4899472;29;20495;-88
2021/04/15 00:41:11;;;;;;;19.50;12.60;;;1.20;99.90;;;-143.32;100.00;52911.66;4899056;29;20460;-89
2021/04/15 00:43:41;;;;;;;27.80;13.33;;;1.10;99.90;;;-143.32;100.00;52891.47;4899287;29;20515;-89
2021/04/15 00:46:40;;;;;;;17.70;12.70;;;1.20;99.90;;;-143.32;100.00;52905.59;4898281;29;20471;-90
2021/04/15 00:49:08;;;;;;;22.23;13.17;;;1.00;99.90;;;-143.32;100.00;52869.25;4899547;29;20511;-89
2021/04/15 00:51:40;;;;;;;22.63;13.40;;;1.00;99.90;;;-143.32;100.00;52873.28;4898604;29;20860;-89
2021/04/15 00:54:13;;;;;;;20.30;13.73;;;0.90;99.90;;;-143.32;100.00;52857.13;4898624;29;20476;-88
2021/04/15 00:56:41;;;;;;;22.80;13.30;;;0.80;99.90;;;-143.32;100.00;52857.13;4898404;29;20633;-90
2021/04/15 00:59:08;;;;;;;22.47;14.10;;;0.80;99.90;;;-143.32;100.00;52794.53;4898300;29;20488;-89
2021/04/15 01:01:36;;;;;;;21.53;12.90;;;0.80;99.90;;;-143.32;100.00;52677.41;4898166;29;20966;-90
2021/04/15 01:04:04;;;;;;;21.93;14.60;;;0.80;99.90;;;-143.32;100.00;52685.50;4898960;29;20507;-89
2021/04/15 01:17:04;;;;;;;21.10;14.30;;;0.70;99.90;;;-143.32;100.00;52459.34;5084329;23;20899;-89
2021/04/15 01:20:15;;;;;;;21.70;14.53;;;0.70;99.90;;;-143.32;100.00;52326.06;4899096;29;20486;-89
2021/04/15 01:23:03;;;;;;;26.43;15.50;;;0.70;99.90;;;-143.32;100.00;52295.78;4879455;29;20455;-89
2021/04/15 01:26:14;;;;;;;29.63;15.50;;;0.70;99.90;;;-143.32;100.00;52198.88;4898860;29;20563;-89
2021/04/15 01:29:06;;;;;;;22.67;15.27;;;0.70;99.90;;;-143.32;100.00;52174.66;4886776;29;20492;-89
2021/04/15 01:31:53;;;;;;;27.00;16.23;;;0.70;99.90;;;-143.32;100.00;52124.19;4899588;29;20773;-89
2021/04/15 01:34:24;;;;;;;23.40;16.10;;;0.80;99.90;;;-143.32;100.00;52047.47;4899165;29;20487;-90
2021/04/15 01:37:01;;;;;;;23.63;15.13;;;0.70;99.90;;;-143.32;100.00;52019.19;4898622;29;20487;-89
2021/04/15 01:39:33;;;;;;;22.93;15.27;;;0.70;99.90;;;-143.32;100.00;52017.16;4898681;29;20466;-88
2021/04/15 01:42:05;;;;;;;22.10;15.10;;;0.70;99.90;;;-143.32;100.00;51984.88;4898570;29;20480;-88
2021/04/15 01:44:39;;;;;;;21.43;14.30;;;0.80;99.90;;;-143.32;100.00;51990.94;4898885;29;20444;-89
2021/04/15 01:47:11;;;;;;;27.53;15.47;;;0.70;99.90;;;-143.32;100.00;51918.25;4898061;29;20449;-89
2021/04/15 01:49:42;;;;;;;26.60;16.40;;;0.70;99.90;;;-143.32;100.00;51873.84;4898012;29;20911;-88
2021/04/15 01:52:13;;;;;;;21.00;15.43;;;0.80;99.90;;;-143.32;100.00;51879.88;4898079;29;21031;-88
2021/04/15 01:54:46;;;;;;;24.90;15.43;;;0.80;99.90;;;-143.32;100.00;51883.94;4897821;29;20532;-90
2021/04/15 01:57:19;;;;;;;23.83;16.03;;;0.80;99.90;;;-143.32;100.00;51843.56;4900358;29;20507;-90
2021/04/15 01:59:51;;;;;;;25.73;16.10;;;0.80;99.90;;;-143.32;100.00;51863.75;4901693;29;20452;-88
2021/04/15 02:02:27;;;;;;;24.93;15.93;;;0.90;99.90;;;-143.32;100.00;51841.53;4902303;29;20460;-88
2021/04/15 02:05:06;;;;;;;25.00;15.47;;;0.80;99.90;;;-143.32;100.00;51821.34;4902304;29;20746;-89
2021/04/15 02:07:38;;;;;;;27.83;16.03;;;0.90;99.90;;;-143.32;100.00;51845.56;4901123;29;20447;-89
2021/04/15 02:10:13;;;;;;;23.60;16.20;;;0.90;99.90;;;-143.32;100.00;51819.31;4901550;29;20526;-89
2021/04/15 02:12:46;;;;;;;31.03;18.27;;;0.80;99.90;;;-143.32;100.00;51809.22;4901228;29;20943;-89
2021/04/15 02:15:23;;;;;;;34.30;19.17;;;0.80;99.90;;;-143.32;100.00;51817.31;4901448;29;20495;-89
2021/04/15 02:17:53;;;;;;;31.80;19.13;;;0.80;99.90;;;-143.32;100.00;51783.00;4901041;29;20468;-89
2021/04/15 02:20:26;;;;;;;33.23;19.10;;;0.90;99.90;;;-143.32;100.00;51766.84;4900659;29;20452;-89
2021/04/15 02:23:03;;;;;;;30.37;19.20;;;0.80;99.90;;;-143.32;100.00;51795.09;4901139;29;20641;-88
2021/04/15 02:25:37;;;;;;;30.17;18.03;;;0.70;99.90;;;-143.32;100.00;51795.09;4885044;29;20480;-89
2021/04/15 02:28:17;;;;;;;32.67;18.70;;;0.80;99.90;;;-143.32;100.00;51766.84;4882210;29;20464;-89
2021/04/15 02:30:58;;;;;;;24.60;16.93;;;0.70;99.90;;;-143.32;100.00;51762.81;4882190;29;20465;-88
2021/04/15 02:33:30;;;;;;;29.53;19.07;;;0.80;99.90;;;-143.32;100.00;51780.97;4882253;29;20912;-88
2021/04/15 02:36:02;;;;;;;28.27;18.50;;;0.70;99.90;;;-143.32;100.00;51833.47;4882217;29;20501;-88
2021/04/15 02:38:54;;;;;;;32.33;16.77;;;0.70;99.90;;;-143.32;100.00;51966.69;4888357;29;20417;-92
2021/04/15 02:45:23;;;;;;;22.80;15.87;;;0.30;99.90;;;-143.32;100.00;51976.78;4881962;29;20996;-88
2021/04/15 02:47:59;;;;;;;31.23;18.13;;;0.20;99.90;;;-143.32;100.00;51960.66;4882101;29;20464;-89
2021/04/15 02:50:31;;;;;;;24.10;16.13;;;0.30;99.90;;;-143.32;100.00;51904.13;4882127;29;20750;-89
2021/04/15 02:53:11;;;;;;;29.50;16.43;;;0.40;99.90;;;-143.32;100.00;51875.84;4888144;29;20503;-90
2021/04/15 02:55:52;;;;;;;33.83;18.57;;;0.20;99.90;;;-143.32;100.00;51861.72;4900674;29;20486;-89
2021/04/15 02:58:28;;;;;;;31.47;17.80;;;0.20;99.90;;;-143.32;100.00;51855.66;4900418;29;20428;-91
2021/04/15 03:00:57;;;;;;;23.77;16.30;;;0.30;99.90;;;-143.32;100.00;51762.81;4900264;29;20446;-90
2021/04/15 03:03:34;;;;;;;25.80;17.33;;;0.30;99.90;;;-143.32;100.00;51714.34;4900108;29;20788;-90
2021/04/15 03:06:12;;;;;;;25.23;16.57;;;0.20;99.90;;;-143.32;100.00;51688.09;4900125;29;20444;-89
2021/04/15 03:08:43;;;;;;;38.43;20.57;;;0.20;99.90;;;-143.32;100.00;51728.47;4881883;29;20418;-89
2021/04/15 03:11:20;;;;;;;27.23;17.80;;;0.30;99.90;;;-143.32;100.00;51724.44;4882016;29;20465;-91
2021/04/15 03:13:52;;;;;;;29.83;19.17;;;0.20;99.90;;;-143.32;100.00;51732.53;4881515;29;20513;-91
2021/04/15 03:16:30;;;;;;;31.00;19.50;;;0.30;99.90;;;-143.32;100.00;51744.63;4881382;29;20480;-89
2021/04/15 03:19:06;;;;;;;33.87;19.40;;;0.20;99.90;;;-143.32;100.00;51694.16;5058176;23;20631;-89
2021/04/15 03:21:40;;;;;;;29.07;19.00;;;0.20;99.90;;;-143.32;100.00;51758.75;4867815;29;20455;-89
2021/04/15 04:46:43;;;;;;;25.20;15.97;;;0.10;99.90;;;-143.32;100.00;51894.03;4903506;29;20492;-93
2021/04/15 04:49:20;;;;;;;38.07;17.83;;;0.10;99.90;;;-143.32;100.00;51827.41;4906272;29;20444;-95
2021/04/15 04:51:51;;;;;;;27.00;17.20;;;0.20;99.90;;;-143.32;100.00;51809.22;4903714;29;20868;-94
2021/04/15 04:54:19;;;;;;;40.47;19.57;;;0.10;99.90;;;-143.32;100.00;51774.91;4907592;29;20977;-92
2021/04/15 04:56:53;;;;;;;36.37;16.90;;;0.10;99.90;;;-143.32;100.00;51768.84;4914545;29;20931;-94
2021/04/15 04:59:26;;;;;;;34.23;19.03;;;0.10;99.90;;;-143.32;100.00;51821.34;4917982;29;20409;-92
2021/04/15 05:05:37;;;;;;;33.77;18.73;;;0.20;99.90;;;-143.32;100.00;51728.47;4908643;29;20456;-95
2021/04/15 05:08:10;;;;;;;38.33;19.10;;;0.20;99.90;;;-143.32;100.00;51706.28;4902965;29;20440;-93
2021/04/15 05:10:42;;;;;;;32.50;18.37;;;0.30;99.90;;;-143.32;100.00;51698.19;4906794;29;20840;-92
2021/04/15 05:20:30;;;;;;;28.03;14.43;;;0.60;99.90;;;-143.32;100.00;51589.19;4781639;30;20978;-89
2021/04/15 05:23:03;;;;;;;23.33;14.93;;;0.90;99.90;;;-143.32;100.00;51665.91;4770805;30;21008;-88
2021/04/15 05:25:36;;;;;;;35.10;16.97;;;1.10;99.90;;;-143.32;100.00;51772.91;4815873;29;20580;-87
2021/04/15 05:28:04;;;;;;;28.63;16.03;;;1.10;99.90;;;-143.32;100.00;51944.50;4879921;29;20483;-88
2021/04/15 05:30:40;;;;;;;31.10;15.90;;;1.20;99.90;;;-143.32;100.00;52001.03;4897943;29;20472;-90
2021/04/15 05:33:11;;;;;;;27.97;14.37;;;1.30;99.90;;;-143.32;100.00;52073.69;4901060;29;20440;-87
2021/04/15 05:35:43;;;;;;;30.43;14.53;;;1.40;99.90;;;-143.32;100.00;52180.72;4901918;29;20532;-89
2021/04/15 05:38:14;;;;;;;21.97;13.17;;;1.50;99.90;;;-143.32;100.00;52257.44;4901748;29;20468;-89
2021/04/15 05:40:41;;;;;;;33.63;15.67;;;1.70;99.90;;;-143.32;100.00;52269.53;4901552;29;20474;-89
2021/04/15 05:43:26;;;;;;;26.27;12.80;;;1.80;99.90;;;-143.32;100.00;52229.16;4901741;29;20448;-90
2021/04/15 05:46:05;;;;;;;24.70;12.67;;;2.20;99.90;;;-143.32;100.00;52253.38;4901707;29;20551;-90
2021/04/15 05:48:45;;;;;;;21.67;12.60;;;2.90;99.90;;;-143.32;100.00;52457.31;4901356;29;20953;-88
2021/04/15 05:51:19;;;;;;;20.73;11.53;;;3.30;99.90;;;-143.32;100.00;52647.13;4887209;29;20537;-90
2021/04/15 05:53:52;;;;;;;18.70;11.37;;;3.70;99.90;;;-143.32;100.00;52778.38;4899966;29;20480;-90
2021/04/15 05:56:24;;;;;;;24.13;11.57;;;4.10;99.90;;;-143.32;100.00;52828.88;4901016;29;20444;-88
2021/04/15 05:59:02;;;;;;;24.53;11.60;;;4.30;99.90;;;-143.32;100.00;52901.56;4901544;29;20440;-89
2021/04/15 06:01:40;;;;;;;18.33;9.93;;;4.80;99.90;;;-143.32;99.04;53073.22;4902986;29;20467;-93
2021/04/15 06:04:23;;;;;;;14.93;8.80;;;5.00;99.90;;;-143.32;98.01;53141.88;4904495;29;20435;-91
2021/04/15 06:06:50;;;;;;;17.07;9.17;;;5.00;99.90;;;-143.32;98.91;53151.97;4903572;29;20456;-92
2021/04/15 06:09:19;;;;;;;16.13;8.70;;;4.90;99.90;;;-143.32;97.81;53176.22;4902379;29;20512;-91
2021/04/15 06:12:27;;;;;;;15.33;8.00;;;4.90;99.90;;;-143.32;97.51;53194.41;4900980;29;20460;-91
2021/04/15 06:14:59;;;;;;;13.60;7.60;;;5.00;99.90;;;-143.32;96.79;53234.78;4901233;29;20484;-90
2021/04/15 06:17:37;;;;;;;19.40;7.60;;;5.00;99.90;;;-143.32;95.20;53212.56;4884746;29;20449;-90
2021/04/15 06:20:12;;;;;;;13.93;7.73;;;5.40;99.90;;;-143.32;94.76;53297.41;4882163;29;20529;-90
2021/04/15 06:22:42;;;;;;;13.90;7.90;;;5.50;99.90;;;-143.32;96.20;53248.94;4882902;29;20445;-89
2021/04/15 06:25:17;;;;;;;14.70;6.97;;;5.50;99.90;;;-143.32;95.20;53271.13;4901324;29;20460;-90
2021/04/15 06:27:49;;;;;;;12.93;6.53;;;5.50;99.90;;;-143.32;93.70;53311.53;4902843;29;20755;-92
2021/04/15 06:30:22;;;;;;;11.27;6.70;;;5.70;99.90;;;-143.32;94.27;53305.47;4897302;29;20437;-89
2021/04/15 06:32:55;;;;;;;16.17;7.80;;;5.70;99.90;;;-143.32;91.88;53319.59;4900796;29;20447;-90
2021/04/15 06:35:25;;;;;;;19.53;8.63;;;6.00;99.90;;;-143.32;93.10;53347.88;4900808;29;20899;-91
2021/04/15 06:37:56;;;;;;;14.43;7.70;;;5.90;99.90;;;-143.32;92.54;53307.50;4900816;29;20456;-89
2021/04/15 06:41:16;;;;;;;21.07;8.73;;;6.20;99.90;;;-143.32;92.18;53329.72;4903675;29;20467;-92
2021/04/15 06:44:34;;;;;;;14.23;8.07;;;6.30;99.90;;;-143.32;90.60;53325.66;4904666;29;20505;-93
2021/04/15 06:47:28;;;;;;;13.37;7.50;;;6.60;99.90;;;-143.32;90.70;53364.03;4903635;29;20461;-91
2021/04/15 06:50:11;;;;;;;18.40;7.67;;;6.60;99.90;;;-143.32;89.68;53364.03;4906424;29;20444;-92
2021/04/15 06:52:51;;;;;;;15.90;7.07;;;6.80;99.90;;;-143.32;88.38;53313.56;4902772;29;20487;-92
2021/04/15 08:20:32;;;;;;;17.87;7.80;;;6.30;99.90;;;-143.32;90.27;53723.56;5011556;23;20496;-92
2021/04/15 08:23:29;;;;;;;14.77;6.73;;;6.30;99.90;;;-143.32;89.21;53703.38;4899074;29;20865;-92
2021/04/15 08:27:00;;;;;;;20.23;7.73;;;6.30;99.90;;;-143.32;89.85;53683.16;4899210;29;20440;-91
2021/04/15 08:29:51;;;;;;;17.53;6.90;;;6.20;99.90;;;-143.32;90.01;53691.25;4898821;29;20455;-92
2021/04/15 08:32:30;;;;;;;19.10;6.90;;;6.20;99.90;;;-143.32;89.62;53665.00;4898804;29;20468;-94
2021/04/15 08:35:12;;;;;;;15.37;7.13;;;6.40;99.90;;;-143.32;90.14;53701.34;4899599;29;20821;-92
2021/04/15 08:37:52;;;;;;;14.43;7.20;;;6.40;99.90;;;-143.32;90.30;53685.19;4899897;29;21018;-91
2021/04/15 08:40:42;;;;;;;17.20;6.77;;;6.40;99.90;;;-143.32;90.63;53671.06;4898957;29;20463;-93
2021/04/15 08:43:40;;;;;;;23.03;6.50;;;6.60;99.90;;;-143.32;90.33;53669.03;4899747;29;20436;-92
2021/04/15 08:46:19;;;;;;;15.23;6.47;;;6.50;99.90;;;-143.32;88.36;53679.13;4898377;29;20444;-88
2021/04/15 08:49:31;;;;;;;13.30;6.10;;;6.60;99.90;;;-143.32;86.94;53703.38;4898495;29;20455;-87
2021/04/15 08:52:17;;;;;;;13.33;4.80;;;6.70;99.90;;;-143.32;85.33;53711.44;4898600;29;20547;-86
2021/04/15 08:55:14;;;;;;;19.50;5.47;;;6.80;99.90;;;-143.32;85.54;53681.16;4884407;29;20837;-86
2021/04/15 08:57:59;;;;;;;9.73;3.87;;;7.00;99.90;;;-143.32;79.72;53650.84;4871727;29;20460;-87
2021/04/15 09:00:38;;;;;;;7.27;4.00;;;7.70;99.90;;;-143.32;78.16;53689.22;4879617;29;20441;-87
2021/04/15 09:03:32;;;;;;;13.77;3.70;;;8.10;99.90;;;-143.32;76.85;53737.72;4879600;29;20480;-87
2021/04/15 09:06:27;;;;;;;5.87;3.20;;;8.00;99.90;;;-143.32;75.34;53737.72;4880879;29;20442;-87
2021/04/15 09:09:20;;;;;;;8.37;3.47;;;8.00;99.10;;;-143.32;76.57;53713.47;4883547;29;20496;-88
2021/04/15 09:12:02;;;;;;;7.80;3.23;;;8.00;99.90;;;-143.32;76.35;53725.59;4883682;29;20445;-87
2021/04/15 09:14:49;;;;;;;13.17;3.93;;;8.30;99.60;;;-143.32;75.94;53733.66;4883603;29;20981;-88
2021/04/15 09:17:27;;;;;;;16.40;4.93;;;8.20;98.70;;;-143.32;76.36;53759.94;4883626;29;20448;-87
2021/04/15 09:20:06;;;;;;;13.77;4.03;;;8.10;99.20;;;-143.32;76.66;53703.38;4893741;29;20989;-88
2021/04/15 09:23:36;;;;;;;6.80;3.60;;;8.30;99.90;;;-143.32;74.94;53713.47;4901837;29;20433;-88
2021/04/15 09:26:19;;;;;;;7.73;3.20;;;8.50;98.50;;;-143.32;73.00;53741.75;4876939;29;20502;-87
2021/04/15 09:29:08;;;;;;;5.93;2.97;;;8.60;92.00;;;-143.32;74.36;53790.22;4902786;29;20444;-90
2021/04/15 09:31:51;;;;;;;7.13;3.90;;;8.50;95.20;;;-143.32;76.26;53778.09;4883158;29;20441;-88
2021/04/15 09:35:08;;;;;;;5.10;3.67;;;8.30;98.00;;;-143.32;77.59;53755.88;4883795;29;20448;-89
2021/04/15 09:38:39;;;;;;;7.17;4.03;;;8.30;99.90;;;-143.32;77.21;53741.75;4883024;29;20556;-90
2021/04/15 09:41:37;;;;;;;7.53;3.60;;;8.40;99.90;;;-143.32;75.55;53721.56;4882164;29;20535;-90
2021/04/15 09:44:21;;;;;;;9.50;3.80;;;8.70;98.80;;;-143.32;75.29;53727.59;4902202;29;20943;-91
2021/04/15 09:46:59;;;;;;;16.80;3.60;;;8.80;99.40;;;-143.32;75.41;53715.50;4901889;29;20444;-91
2021/04/15 09:49:58;;;;;;;8.50;3.13;;;8.70;99.10;;;-143.32;71.78;53761.94;4893639;29;20452;-90
2021/04/15 09:52:58;;;;;;;7.70;3.53;;;8.80;89.90;;;-143.32;72.92;53842.75;4890494;29;20476;-90
2021/04/15 09:56:21;;;;;;;6.17;3.00;;;8.40;91.30;;;-143.32;71.58;53814.47;4884314;29;21015;-90
2021/04/15 09:59:05;;;;;;;8.73;3.47;;;8.60;90.20;;;-143.32;72.71;53804.38;4872653;29;20523;-94
2021/04/15 10:01:37;;;;;;;7.83;3.33;;;8.70;93.60;;;-143.32;70.55;53816.50;4883279;29;20445;-93
2021/04/15 10:04:12;;;;;;;11.77;2.67;;;8.90;86.70;;;-143.32;68.96;53812.44;4883560;29;20437;-91
2021/04/15 10:06:47;;;;;;;7.33;2.90;;;9.20;75.10;;;-143.32;68.46;53820.53;4883984;29;20528;-91
2021/04/15 10:09:58;;;;;;;5.47;2.77;;;9.20;68.70;;;-143.32;66.74;53885.16;4883199;29;20845;-87
2021/04/15 10:12:43;;;;;;;7.00;2.90;;;9.30;61.80;;;-143.32;66.06;53862.94;4843037;29;20489;-88
2021/04/15 10:15:41;;;;;;;5.57;2.73;;;9.20;60.10;;;-143.32;62.82;53915.47;4843080;29;20527;-87
2021/04/15 10:18:21;;;;;;;6.07;2.80;;;9.30;43.30;;;-143.32;63.86;53915.47;4876710;29;20457;-91
2021/04/15 10:21:17;;;;;;;4.23;2.80;;;9.30;44.50;;;-143.32;62.58;53891.22;4885514;29;20469;-91
2021/04/15 10:24:27;;;;;;;5.13;2.67;;;9.40;40.10;;;-143.32;61.73;53903.34;4883800;29;20805;-91
2021/04/15 10:27:59;;;;;;;5.20;2.73;;;9.50;34.80;;;-143.32;60.67;53972.03;4850062;29;20793;-89
2021/04/15 10:31:11;;;;;;;5.10;2.67;;;9.60;31.60;;;-143.32;59.43;53998.28;4806532;29;20502;-90
2021/04/15 10:34:16;;;;;;;5.90;2.80;;;9.40;24.70;;;-143.32;61.20;54012.44;4882759;29;20556;-92
2021/04/15 10:37:39;;;;;;;6.80;3.40;;;9.10;26.80;;;-143.32;56.56;54109.41;4882198;29;20956;-89
2021/04/15 10:48:26;;;;;;;5.77;2.57;;;9.00;24.10;;;-143.32;61.16;54050.81;4881145;29;20548;-88
2021/04/15 10:50:59;;;;;;;7.07;2.33;;;8.90;28.40;;;-143.32;52.95;54127.56;4880425;29;20487;-89
2021/04/15 10:53:52;;;;;;;3.57;2.30;;;9.10;10.50;;;-143.32;53.29;54149.78;4881648;29;20508;-87
2021/04/15 10:56:44;;;;;;;4.60;2.20;;;9.10;7.90;;;-143.32;51.19;54147.78;4898729;29;20486;-90
2021/04/15 10:59:35;;;;;;;4.37;2.77;;;9.30;5.80;;;-143.32;51.14;54111.41;4898069;29;20472;-89
2021/04/15 11:02:29;;;;;;;6.90;3.10;;;9.50;5.70;;;-143.32;57.26;54054.84;4871780;29;20488;-90
2021/04/15 11:05:17;;;;;;;6.03;3.17;;;9.50;16.70;;;-143.32;56.60;54064.94;4881843;29;20434;-87
2021/04/15 11:07:47;;;;;;;5.43;2.07;;;9.50;15.30;;;-143.32;50.02;54167.97;4881717;29;20485;-89
2021/04/15 11:10:29;;;;;;;7.77;2.50;;;9.40;2.20;;;-143.32;46.69;54214.44;4881676;29;20453;-88
2021/04/15 11:13:13;;;;;;;8.40;2.20;;;9.50;1.00;;;-143.32;47.17;54194.25;4881470;29;20437;-88
2021/04/15 11:15:44;;;;;;;3.60;2.20;;;9.60;1.00;;;-143.32;51.31;54256.88;4887745;29;20522;-88
2021/04/15 11:25:39;;;;;;;3.70;2.10;;;8.80;6.30;;;-143.32;52.77;54240.72;4861672;29;20887;-91
2021/04/15 11:31:46;;;;;;;5.43;2.40;;;9.20;3.90;;;-143.32;48.94;54220.50;4864427;29;20461;-94
2021/04/15 11:34:21;;;;;;;7.10;2.40;;;9.60;1.00;;;-143.32;48.88;54277.06;4865428;29;20478;-92
2021/04/15 11:37:09;;;;;;;3.67;2.00;;;9.30;1.00;;;-143.32;48.15;54275.06;4874823;29;20459;-92
2021/04/15 11:39:38;;;;;;;4.50;2.40;;;9.10;1.00;;;-143.32;48.66;54256.88;4888978;29;20437;-93
2021/04/15 11:42:14;;;;;;;3.93;2.93;;;9.20;1.00;;;-143.32;47.12;54313.44;4888898;29;20802;-92
2021/04/15 11:44:52;;;;;;;5.43;2.90;;;9.50;1.00;;;-143.32;47.79;54307.38;4883758;29;20543;-93
2021/04/15 11:47:25;;;;;;;8.23;4.40;;;9.40;1.00;;;-143.32;46.76;54277.06;4881727;29;20470;-91
2021/04/15 11:50:11;;;;;;;3.77;2.30;;;9.50;1.00;;;-143.32;49.00;54230.59;4886386;29;20441;-91
2021/04/15 11:52:46;;;;;;;10.80;2.10;;;9.70;1.00;;;-143.32;47.01;54226.56;4889144;29;20501;-94
2021/04/15 11:55:27;;;;;;;4.23;2.33;;;9.90;1.00;;;-143.32;51.21;54260.91;4895089;29;20519;-91
2021/04/15 11:57:59;;;;;;;9.37;3.20;;;9.40;1.00;;;-143.32;53.11;54252.81;4904707;29;20417;-91
2021/04/15 12:00:29;;;;;;;8.90;3.10;;;9.30;99.90;;;-143.32;54.39;54260.91;4901181;29;20512;-92
2021/04/15 12:03:17;;;;;;;6.70;3.50;;;9.20;99.90;;;-143.32;54.40;54303.34;4899324;29;20456;-89
2021/04/15 12:09:32;;;;;;;7.27;3.17;;;8.80;99.90;;;-143.32;53.07;54307.38;4880372;29;20416;-90
2021/04/15 12:12:12;;;;;;;8.40;3.20;;;8.80;99.90;;;-143.32;52.21;54305.34;4886427;29;20440;-89
2021/04/15 12:14:41;;;;;;;5.67;3.50;;;9.00;99.90;;;-143.32;51.21;54281.13;4900853;29;20467;-92
2021/04/15 12:17:33;;;;;;;8.33;3.60;;;9.20;99.90;;;-143.32;49.66;54283.13;4909563;29;20483;-92
2021/04/15 12:20:15;;;;;;;7.93;3.57;;;9.40;99.90;;;-143.32;50.53;54218.50;4913213;29;20448;-92
2021/04/15 12:23:04;;;;;;;6.40;3.90;;;9.70;99.90;;;-143.32;51.51;54214.44;4906451;29;20484;-92
2021/04/15 12:25:58;;;;;;;5.37;3.30;;;9.80;99.90;;;-143.32;52.52;54248.78;4901401;29;20482;-92
2021/04/15 12:28:41;;;;;;;9.60;3.50;;;9.70;99.90;;;-143.32;52.90;54281.13;4913230;29;20444;-93
2021/04/15 12:31:25;;;;;;;5.17;3.40;;;9.40;99.90;;;-143.32;52.50;54269.00;4912418;29;20441;-91
2021/04/15 12:37:31;;;;;;;7.23;3.30;;;9.40;99.90;;;-143.32;54.35;54299.28;4913852;29;20459;-93
2021/04/15 12:44:23;;;;;;;4.03;3.27;;;8.80;99.90;;;-143.32;55.72;54339.69;4889544;29;20519;-93
2021/04/15 12:50:34;;;;;;;6.63;4.47;;;8.60;99.90;;;-143.32;52.75;54303.34;4910213;29;20440;-91
2021/04/15 12:53:47;;;;;;;5.27;3.40;;;9.00;99.90;;;-143.32;49.84;54291.22;4908881;29;20523;-94
2021/04/15 12:59:25;;;;;;;13.70;3.90;;;9.70;99.90;;;-143.32;48.88;54315.47;4905224;29;20491;-94
2021/04/15 13:10:24;;;;;;;6.53;3.10;;;9.60;1.00;;;-143.32;48.87;54287.16;4950861;29;20425;-91
2021/04/15 13:13:00;;;;;;;5.23;3.13;;;10.00;1.00;;;-143.32;51.20;54244.75;4950289;29;20442;-91
2021/04/15 13:16:06;;;;;;;7.67;3.70;;;10.10;1.00;;;-143.32;49.12;54275.06;4949143;29;20509;-91
2021/04/15 13:19:27;;;;;;;4.27;2.70;;;10.00;1.00;;;-143.32;49.17;54309.41;4950104;29;20446;-92
2021/04/15 13:22:31;;;;;;;;;;;;;;;;;;;;;
2021/04/15 13:32:06;;;;;;;11.33;3.50;;;9.60;99.90;;;-143.32;50.52;54311.41;4939875;29;20485;-90
2021/04/15 13:35:13;;;;;;;;;;;;;;;;;;;;;
2021/04/15 13:37:47;;;;;;;4.60;3.27;;;9.30;1.00;;;-143.32;49.57;54339.69;4945454;29;20450;-92
2021/04/15 14:25:18;;;;;;;4.33;2.37;;;10.10;1.00;;;-143.32;36.03;54565.97;4720800;30;20427;-93
2021/04/15 14:34:45;;;;;;;6.37;3.27;;;10.00;1.00;;;-143.32;47.96;54440.72;4830377;29;20484;-90
2021/04/15 14:37:24;;;;;;;4.67;3.47;;;9.80;99.90;;;-143.32;51.86;54503.34;4914781;29;20477;-89
2021/04/15 14:40:05;;;;;;;;;;;;;;;;;;;;;
2021/04/15 14:42:40;;;;;;;4.93;3.50;;;9.00;99.90;;;-143.32;53.42;54452.84;4951037;29;20469;-91
2021/04/15 14:45:25;;;;;;;6.53;3.77;;;9.10;99.90;;;-143.32;55.34;54462.94;4949294;28;20500;-90
2021/04/15 14:48:06;;;;;;;6.90;3.47;;;8.90;99.90;;;-143.32;54.50;54434.66;4948561;29;20801;-91
2021/04/15 14:50:40;;;;;;;9.30;3.10;;;8.70;99.90;;;-143.32;53.23;54495.25;4946367;29;20430;-91
2021/04/15 14:56:51;;;;;;;7.07;3.33;;;8.90;99.90;;;-143.32;50.60;54444.75;4943164;29;20505;-91
2021/04/15 14:59:27;;;;;;;7.00;3.30;;;9.10;99.90;;;-143.32;47.39;54505.38;4943718;29;20446;-91
2021/04/15 15:02:08;;;;;;;4.37;2.80;;;9.20;99.90;;;-143.32;48.30;54497.28;4942867;29;20438;-92
2021/04/15 15:04:35;;;;;;;9.70;3.63;;;9.10;99.90;;;-143.32;48.16;54503.34;4944216;29;20756;-93
2021/04/15 15:07:03;;;;;;;4.40;3.10;;;9.10;99.90;;;-143.32;47.50;54473.03;4939605;29;20561;-90
2021/04/15 15:09:40;;;;;;;5.27;3.10;;;9.10;99.90;;;-143.32;47.77;54515.47;4940296;29;20450;-92
2021/04/15 15:12:14;;;;;;;4.33;2.83;;;9.00;99.90;;;-143.32;46.35;54531.63;4940748;29;20474;-93
2021/04/15 15:14:57;;;;;;;8.03;3.07;;;9.00;99.90;;;-143.32;48.70;54493.25;4944898;29;20434;-92
2021/04/15 15:17:29;;;;;;;3.93;2.53;;;8.90;99.90;;;-143.32;44.31;54549.81;4947444;28;20525;-92
2021/04/15 15:20:19;;;;;;;5.07;2.60;;;9.00;99.90;;;-143.32;39.46;54612.44;4946529;29;20423;-91
2021/04/15 15:31:07;;;;;;;;;;;;;;;;;;;;;
2021/04/15 15:48:53;;;;;;;4.43;3.20;;;10.10;99.90;;;-143.32;38.32;54541.72;4796267;30;20425;-94
2021/04/15 15:51:54;;;;;;;;;;;;;;;;;;;;;
2021/04/15 15:54:45;;;;;;;4.03;2.83;;;10.10;99.90;;;-143.32;40.47;54578.09;4947180;28;20462;-94
2021/04/15 16:01:54;;;;;;;3.70;2.27;;;10.00;99.90;;;-143.32;39.61;54563.97;4947377;29;20519;-91
2021/04/15 16:05:17;;;;;;;;;;;;;;;;;;;;;
2021/04/15 16:08:01;;;;;;;4.80;2.77;;;9.80;99.90;;;-143.32;39.19;54582.13;4946826;29;20517;-92
2021/04/15 16:15:26;;;;;;;10.60;2.70;;;9.60;99.90;;;-143.32;37.86;54642.75;4947174;29;20481;-91
2021/04/15 16:18:17;;;;;;;3.97;2.80;;;9.70;99.90;;;-143.32;38.30;54616.50;4914452;29;20474;-92
2021/04/15 16:24:51;;;;;;;3.60;2.50;;;9.80;99.90;;;-143.32;34.70;54699.34;4947518;29;20409;-91
2021/04/15 16:27:41;;;;;;;4.13;2.47;;;9.90;99.90;;;-143.32;34.46;54697.31;4943419;29;20485;-92
2021/04/15 16:30:39;;;;;;;7.23;3.00;;;9.90;99.90;;;-143.32;34.26;54723.56;4939260;28;20831;-91
2021/04/15 16:33:58;;;;;;;;;;;;;;;;;;;;;
2021/04/15 16:41:12;;;;;;;4.10;2.97;;;9.80;99.90;;;-143.32;37.62;54654.88;4940087;29;20537;-91
2021/04/15 18:34:26;;;;;;;;;;;;;;;;;;;;;
2021/04/15 18:41:16;;;;;;;4.30;3.10;;;8.40;99.90;;;-143.32;43.01;54792.28;4759186;30;20474;-90
2021/04/15 18:54:50;;;;;;;5.83;3.50;;;7.80;99.90;;;-143.32;44.48;54863.00;4850320;29;20464;-91
2021/04/15 19:01:27;;;;;;;;;;;;;;;;;;;;;
2021/04/15 19:11:48;;;;;;;;;;;;;;;;;;;;;
2021/04/15 19:14:23;;;;;;;6.03;2.80;;;7.60;99.90;;;-143.32;42.50;54883.19;4850445;29;20466;-91
2021/04/15 19:17:30;;;;;;;;;;;;;;;;;;;;;
2021/04/15 19:28:20;;;;;;;4.53;3.00;;;7.20;99.90;;;-143.32;45.96;54865.00;4855941;29;20470;-90